Time;durP1;ratioP1;P1;durP2;ratioP2;P2;SDS_P1;SDS_P2;PMS_P1;PMS_P2;Temp;Humidity;BMP_temperature;BMP_pressure;BME280_temperature;BME280_humidity;BME280_pressure;Samples;Min_cycle;Max_cycle;Signal;HPM_P1;HPM_P2
2023/02/17 00:01:26;;;;;;;45.93;32.77;;;8.20;99.90;;;;;;5043095;28;20207;-55
2023/02/17 00:03:53;;;;;;;50.07;33.83;;;8.30;99.90;;;;;;5038690;28;20191;-54
2023/02/17 00:06:23;;;;;;;49.10;32.73;;;8.30;99.90;;;;;;5053361;28;20203;-53
2023/02/17 00:08:50;;;;;;;43.87;31.60;;;8.20;99.90;;;;;;5038102;28;20268;-54
2023/02/17 00:11:17;;;;;;;46.00;32.63;;;8.30;99.90;;;;;;5046523;28;20199;-50
2023/02/17 00:13:44;;;;;;;43.33;32.50;;;8.30;99.90;;;;;;5046854;28;20204;-52
2023/02/17 00:16:15;;;;;;;45.70;33.50;;;8.30;99.90;;;;;;5047716;28;20198;-53
2023/02/17 00:18:42;;;;;;;47.40;34.90;;;8.30;99.90;;;;;;5050028;28;20697;-53
2023/02/17 00:21:14;;;;;;;46.33;32.77;;;8.30;99.90;;;;;;5048861;28;20616;-53
2023/02/17 00:23:43;;;;;;;46.90;34.30;;;8.30;99.90;;;;;;5045761;28;20565;-52
2023/02/17 00:26:09;;;;;;;47.10;33.57;;;8.40;99.90;;;;;;5052379;28;20199;-54
2023/02/17 00:28:36;;;;;;;45.33;32.23;;;8.30;99.90;;;;;;5051778;28;20211;-54
2023/02/17 00:31:08;;;;;;;49.50;34.20;;;8.30;99.90;;;;;;5044290;28;20206;-54
2023/02/17 00:33:35;;;;;;;47.67;34.37;;;8.40;99.90;;;;;;5050641;28;20210;-49
2023/02/17 00:36:04;;;;;;;48.03;33.30;;;8.30;99.90;;;;;;5050029;28;20539;-53
2023/02/17 00:38:31;;;;;;;47.97;35.00;;;8.40;99.90;;;;;;5046516;28;21568;-54
2023/02/17 00:41:01;;;;;;;52.30;33.70;;;8.40;99.90;;;;;;5053033;28;20275;-51
2023/02/17 00:43:27;;;;;;;47.80;34.00;;;8.40;99.90;;;;;;5048232;28;20192;-52
2023/02/17 00:45:55;;;;;;;53.43;35.17;;;8.40;99.90;;;;;;5050738;28;20286;-54
2023/02/17 00:48:22;;;;;;;49.10;35.50;;;8.40;99.90;;;;;;5050940;28;20201;-53
2023/02/17 00:50:49;;;;;;;49.13;33.67;;;8.40;99.90;;;;;;5041862;28;20517;-54
2023/02/17 00:53:16;;;;;;;51.47;35.50;;;8.40;99.90;;;;;;5043116;28;20202;-54
2023/02/17 00:55:43;;;;;;;51.90;36.77;;;8.50;99.90;;;;;;5040135;28;20215;-50
2023/02/17 00:58:11;;;;;;;54.70;36.47;;;8.40;99.90;;;;;;5048286;28;20689;-54
2023/02/17 01:00:38;;;;;;;53.97;36.47;;;8.50;99.90;;;;;;5044228;28;20330;-55
2023/02/17 01:03:05;;;;;;;49.87;35.37;;;8.50;99.90;;;;;;5046571;28;20195;-54
2023/02/17 01:05:31;;;;;;;48.97;34.57;;;8.50;99.90;;;;;;5041490;28;20211;-55
2023/02/17 01:07:58;;;;;;;53.97;36.80;;;8.50;99.90;;;;;;5062458;28;20223;-54
2023/02/17 01:10:26;;;;;;;52.70;35.97;;;8.50;99.90;;;;;;5032757;28;21041;-51
2023/02/17 01:12:53;;;;;;;50.90;35.43;;;8.50;99.90;;;;;;5049259;28;20657;-51
2023/02/17 01:15:23;;;;;;;51.33;35.53;;;8.50;99.90;;;;;;5047308;28;20202;-52
2023/02/17 01:17:50;;;;;;;48.70;32.57;;;8.60;99.90;;;;;;5055324;28;20215;-51
2023/02/17 01:20:16;;;;;;;50.87;36.07;;;8.50;99.90;;;;;;5040993;28;20195;-54
2023/02/17 01:22:43;;;;;;;44.87;32.20;;;8.50;99.90;;;;;;5045526;28;20203;-51
2023/02/17 01:25:10;;;;;;;48.23;34.13;;;8.60;99.90;;;;;;5034507;28;20712;-54
2023/02/17 01:27:37;;;;;;;47.83;33.73;;;8.50;99.90;;;;;;5055084;28;20683;-50
2023/02/17 01:30:05;;;;;;;47.33;33.03;;;8.60;99.90;;;;;;5046341;28;20206;-53
2023/02/17 01:32:33;;;;;;;48.10;33.40;;;8.60;99.90;;;;;;5043720;28;20203;-51
2023/02/17 01:35:00;;;;;;;49.00;32.73;;;8.60;99.90;;;;;;5050054;28;20245;-53
2023/02/17 01:37:27;;;;;;;47.77;32.63;;;8.60;99.90;;;;;;5041505;28;20202;-50
2023/02/17 01:39:54;;;;;;;45.00;32.00;;;8.60;99.90;;;;;;5052928;28;20219;-51
2023/02/17 01:42:21;;;;;;;49.63;32.80;;;8.70;99.90;;;;;;5031282;28;20226;-54
2023/02/17 01:45:37;;;;;;;46.53;33.37;;;8.60;99.90;;;;;;5059024;28;20187;-55
2023/02/17 01:48:11;;;;;;;44.03;30.60;;;8.70;99.90;;;;;;4984641;28;20228;-54
2023/02/17 01:50:40;;;;;;;44.17;31.37;;;8.60;99.90;;;;;;5028972;28;20220;-50
2023/02/17 01:53:10;;;;;;;43.07;31.90;;;8.60;99.90;;;;;;5041686;28;20203;-55
2023/02/17 01:55:40;;;;;;;42.80;30.23;;;8.70;99.90;;;;;;5063811;28;20204;-52
2023/02/17 01:58:09;;;;;;;42.70;29.23;;;8.70;99.90;;;;;;5044645;28;20291;-53
2023/02/17 02:00:36;;;;;;;42.53;29.60;;;8.70;99.90;;;;;;5049321;28;20215;-54
2023/02/17 02:03:06;;;;;;;39.37;28.40;;;8.70;99.90;;;;;;5042010;28;20199;-55
2023/02/17 02:05:35;;;;;;;42.10;29.60;;;8.70;99.90;;;;;;5043824;28;20191;-53
2023/02/17 02:08:02;;;;;;;38.77;28.73;;;8.70;99.90;;;;;;5043228;28;20223;-53
2023/02/17 02:10:33;;;;;;;40.97;29.07;;;8.70;99.90;;;;;;5043085;28;20191;-55
2023/02/17 02:12:59;;;;;;;37.23;27.03;;;8.80;99.90;;;;;;5036527;28;20202;-55
2023/02/17 02:15:32;;;;;;;36.77;28.00;;;8.80;99.90;;;;;;5042560;28;20270;-54
2023/02/17 02:18:38;;;;;;;40.37;27.87;;;8.80;99.90;;;;;;5055300;28;20237;-55
2023/02/17 02:21:39;;;;;;;34.93;26.67;;;8.80;99.90;;;;;;5031504;28;20202;-55
2023/02/17 02:24:26;;;;;;;33.77;26.50;;;8.80;99.90;;;;;;5040584;28;20198;-53
2023/02/17 02:27:32;;;;;;;37.80;26.80;;;8.90;99.90;;;;;;5042503;28;20199;-55
2023/02/17 02:30:29;;;;;;;35.57;24.87;;;8.80;99.90;;;;;;5039321;28;20202;-54
2023/02/17 02:33:04;;;;;;;36.03;26.00;;;8.90;99.90;;;;;;5043331;28;20215;-54
2023/02/17 02:35:41;;;;;;;36.83;26.70;;;8.80;99.90;;;;;;5044166;28;20566;-51
2023/02/17 02:38:14;;;;;;;35.10;24.83;;;8.90;99.90;;;;;;5039306;28;20227;-54
2023/02/17 02:40:46;;;;;;;33.10;25.07;;;8.90;99.90;;;;;;5051219;28;20698;-51
2023/02/17 02:43:15;;;;;;;35.67;24.10;;;8.90;99.90;;;;;;5036387;28;20226;-50
2023/02/17 02:45:42;;;;;;;35.13;24.97;;;8.90;99.90;;;;;;5049618;28;20234;-54
2023/02/17 02:48:10;;;;;;;36.03;25.27;;;8.90;99.90;;;;;;5050486;28;20942;-53
2023/02/17 02:50:54;;;;;;;32.83;24.20;;;9.00;99.90;;;;;;5046201;28;20199;-51
2023/02/17 02:53:40;;;;;;;31.43;23.13;;;9.00;99.90;;;;;;5042553;28;20222;-51
2023/02/17 02:56:18;;;;;;;34.53;24.83;;;9.00;99.90;;;;;;5039430;28;20199;-54
2023/02/17 02:58:56;;;;;;;33.80;23.27;;;9.00;99.90;;;;;;5037278;28;20288;-55
2023/02/17 03:01:31;;;;;;;35.90;23.83;;;9.00;99.90;;;;;;5046805;28;20685;-50
2023/02/17 03:04:07;;;;;;;31.30;23.40;;;9.10;99.90;;;;;;5042704;28;20221;-54
2023/02/17 03:06:40;;;;;;;31.53;22.43;;;9.00;99.90;;;;;;5042897;28;20688;-50
2023/02/17 03:09:11;;;;;;;33.53;22.57;;;9.10;99.90;;;;;;5038641;28;20907;-50
2023/02/17 03:11:39;;;;;;;34.30;22.93;;;9.10;99.90;;;;;;5044371;28;20208;-52
2023/02/17 03:14:08;;;;;;;31.50;22.10;;;9.10;99.90;;;;;;5039703;28;20195;-51
2023/02/17 03:16:39;;;;;;;32.90;22.10;;;9.10;99.90;;;;;;5031957;28;20289;-51
2023/02/17 03:19:09;;;;;;;30.50;21.87;;;9.10;99.90;;;;;;5040462;28;20215;-51
2023/02/17 03:21:39;;;;;;;35.17;22.00;;;9.10;99.90;;;;;;5042488;28;20674;-51
2023/02/17 03:24:07;;;;;;;32.33;21.40;;;9.20;99.90;;;;;;5058667;28;20244;-51
2023/02/17 03:26:33;;;;;;;31.53;21.50;;;9.10;99.90;;;;;;5058525;28;20696;-50
2023/02/17 03:29:00;;;;;;;30.83;22.13;;;9.20;99.90;;;;;;5057964;28;20305;-54
2023/02/17 03:31:27;;;;;;;30.13;20.87;;;9.20;99.90;;;;;;5040883;28;20205;-52
2023/02/17 03:33:54;;;;;;;28.13;19.93;;;9.20;99.90;;;;;;5053501;28;20206;-55
2023/02/17 03:36:23;;;;;;;27.30;20.47;;;9.20;99.90;;;;;;5043071;28;20225;-54
2023/02/17 03:38:50;;;;;;;30.30;21.47;;;9.20;99.90;;;;;;5041682;28;20215;-55
2023/02/17 03:41:17;;;;;;;29.43;20.03;;;9.20;99.90;;;;;;5041945;28;20191;-52
2023/02/17 03:43:44;;;;;;;27.70;20.27;;;9.20;99.90;;;;;;5042907;28;20199;-54
2023/02/17 03:46:12;;;;;;;32.70;21.07;;;9.30;99.90;;;;;;5030323;28;20211;-51
2023/02/17 03:48:39;;;;;;;29.83;21.00;;;9.30;99.90;;;;;;5049394;28;20578;-53
2023/02/17 03:51:14;;;;;;;31.00;21.30;;;9.30;99.90;;;;;;5041070;28;20229;-50
2023/02/17 03:53:43;;;;;;;27.90;19.20;;;9.30;99.90;;;;;;5059274;28;20209;-51
2023/02/17 03:56:11;;;;;;;27.83;18.47;;;9.30;99.90;;;;;;5063919;28;20191;-53
2023/02/17 03:58:38;;;;;;;28.80;19.77;;;9.30;99.90;;;;;;5066470;28;20214;-52
2023/02/17 04:01:05;;;;;;;27.53;18.83;;;9.30;99.90;;;;;;5047016;28;20650;-56
2023/02/17 04:03:32;;;;;;;28.13;19.37;;;9.30;99.90;;;;;;5059465;28;20198;-52
2023/02/17 04:05:58;;;;;;;27.53;19.60;;;9.30;99.90;;;;;;5049664;28;20200;-55
2023/02/17 04:08:26;;;;;;;27.07;19.07;;;9.40;99.90;;;;;;5046909;28;20239;-51
2023/02/17 04:10:55;;;;;;;28.43;19.37;;;9.40;99.90;;;;;;5045097;28;20210;-54
2023/02/17 04:13:22;;;;;;;29.27;19.90;;;9.40;99.90;;;;;;5046212;28;20218;-53
2023/02/17 04:15:51;;;;;;;30.40;19.33;;;9.40;99.90;;;;;;5039513;28;20199;-51
2023/02/17 04:18:19;;;;;;;29.30;19.20;;;9.40;99.90;;;;;;5051312;28;20222;-50
2023/02/17 04:20:48;;;;;;;35.30;19.13;;;9.40;99.90;;;;;;5048885;28;20219;-54
2023/02/17 04:23:16;;;;;;;26.57;18.47;;;9.40;99.90;;;;;;5044748;28;20191;-54
2023/02/17 04:25:44;;;;;;;27.97;17.80;;;9.40;99.90;;;;;;5046785;28;20204;-55
2023/02/17 04:28:14;;;;;;;29.47;18.37;;;9.40;99.90;;;;;;5043969;28;20222;-54
2023/02/17 04:30:43;;;;;;;31.47;17.53;;;9.50;99.90;;;;;;5029120;28;21689;-54
2023/02/17 04:33:09;;;;;;;24.40;16.80;;;9.40;99.90;;;;;;5042070;28;20205;-54
2023/02/17 04:35:37;;;;;;;26.80;17.27;;;9.50;99.90;;;;;;5044710;28;20187;-53
2023/02/17 04:38:07;;;;;;;23.20;16.10;;;9.50;99.90;;;;;;5045665;28;20230;-54
2023/02/17 04:40:34;;;;;;;22.70;16.43;;;9.50;99.90;;;;;;5043328;28;20215;-52
2023/02/17 04:43:00;;;;;;;23.27;17.40;;;9.50;99.90;;;;;;5046598;28;20857;-54
2023/02/17 04:45:29;;;;;;;23.87;15.70;;;9.50;99.90;;;;;;5045080;28;20187;-52
2023/02/17 04:47:56;;;;;;;22.77;15.77;;;9.50;99.90;;;;;;5043953;28;20225;-54
2023/02/17 04:50:23;;;;;;;26.37;16.43;;;9.50;99.90;;;;;;5054860;28;20214;-52
2023/02/17 04:52:50;;;;;;;22.63;16.13;;;9.50;99.90;;;;;;5046146;28;20712;-54
2023/02/17 04:55:16;;;;;;;25.50;16.53;;;9.60;99.90;;;;;;5043604;28;20751;-52
2023/02/17 04:57:44;;;;;;;28.83;17.60;;;9.60;99.90;;;;;;5045683;28;20203;-51
2023/02/17 05:00:12;;;;;;;28.83;18.60;;;9.60;99.90;;;;;;5042513;28;20294;-55
2023/02/17 05:02:40;;;;;;;26.23;17.37;;;9.60;99.90;;;;;;5046583;28;20197;-53
2023/02/17 05:05:07;;;;;;;27.23;18.20;;;9.50;99.90;;;;;;5037840;28;20199;-55
2023/02/17 05:07:34;;;;;;;26.83;17.73;;;9.50;99.90;;;;;;5053479;28;20899;-51
2023/02/17 05:10:01;;;;;;;27.97;17.57;;;9.60;99.90;;;;;;5046040;28;20306;-51
2023/02/17 05:12:28;;;;;;;28.50;18.87;;;9.60;99.90;;;;;;5042124;28;20890;-52
2023/02/17 05:14:55;;;;;;;40.83;21.43;;;9.60;99.90;;;;;;5046049;28;20191;-53
2023/02/17 05:17:22;;;;;;;37.60;19.67;;;9.60;99.90;;;;;;5051751;28;20661;-55
2023/02/17 05:19:50;;;;;;;27.00;17.10;;;9.60;99.90;;;;;;5037122;28;20626;-53
2023/02/17 05:22:17;;;;;;;40.13;20.23;;;9.60;99.90;;;;;;5046719;28;20265;-53
2023/02/17 05:24:44;;;;;;;31.07;19.03;;;9.60;99.90;;;;;;5044714;28;20199;-54
2023/02/17 05:27:11;;;;;;;33.80;17.93;;;9.60;99.90;;;;;;5044263;28;20192;-53
2023/02/17 05:29:37;;;;;;;31.80;18.27;;;9.70;99.90;;;;;;5043762;28;20207;-50
2023/02/17 05:32:04;;;;;;;33.50;19.00;;;9.70;99.90;;;;;;5045264;28;20215;-53
2023/02/17 05:34:30;;;;;;;28.83;18.07;;;9.70;99.90;;;;;;5042117;28;20924;-51
2023/02/17 05:36:59;;;;;;;24.97;17.00;;;9.60;99.90;;;;;;5038710;28;20218;-54
2023/02/17 05:39:26;;;;;;;23.77;16.33;;;9.60;99.90;;;;;;5047139;28;20219;-54
2023/02/17 05:41:53;;;;;;;24.07;17.03;;;9.70;99.90;;;;;;5045592;28;20550;-55
2023/02/17 05:44:20;;;;;;;30.33;18.10;;;9.70;99.90;;;;;;5041597;28;20254;-55
2023/02/17 05:46:47;;;;;;;38.80;19.70;;;9.70;99.90;;;;;;5046780;28;20305;-55
2023/02/17 05:49:14;;;;;;;31.30;19.03;;;9.70;99.90;;;;;;5045647;28;20228;-53
2023/02/17 05:51:40;;;;;;;41.90;21.37;;;9.70;99.90;;;;;;5036442;28;20206;-54
2023/02/17 05:54:08;;;;;;;28.00;16.17;;;9.70;99.90;;;;;;5047839;28;20197;-50
2023/02/17 05:56:35;;;;;;;31.57;18.27;;;9.70;99.90;;;;;;5047627;28;20202;-55
2023/02/17 05:59:02;;;;;;;32.33;18.93;;;9.70;99.90;;;;;;5040821;28;20306;-52
2023/02/17 06:01:28;;;;;;;28.47;16.73;;;9.70;99.90;;;;;;5040415;28;20250;-54
2023/02/17 06:03:55;;;;;;;26.90;17.43;;;9.70;99.90;;;;;;5049278;28;20203;-54
2023/02/17 06:06:22;;;;;;;31.00;19.20;;;9.70;99.90;;;;;;5038103;28;20246;-54
2023/02/17 06:08:49;;;;;;;36.20;19.40;;;9.70;99.90;;;;;;5050457;28;20219;-55
2023/02/17 06:11:17;;;;;;;30.60;18.47;;;9.70;99.90;;;;;;5044404;28;20198;-54
2023/02/17 06:13:43;;;;;;;30.93;18.70;;;9.70;99.90;;;;;;5048497;28;20202;-51
2023/02/17 06:16:10;;;;;;;32.73;18.13;;;9.70;99.90;;;;;;5048023;28;20214;-54
2023/02/17 06:18:37;;;;;;;35.13;20.50;;;9.70;99.90;;;;;;5049483;28;20210;-52
2023/02/17 06:21:04;;;;;;;33.03;19.63;;;9.70;99.90;;;;;;5046948;28;20207;-53
2023/02/17 06:23:31;;;;;;;32.07;19.40;;;9.80;99.90;;;;;;5040291;28;20863;-55
2023/02/17 06:25:58;;;;;;;31.43;19.30;;;9.70;99.90;;;;;;5047701;28;20199;-54
2023/02/17 06:28:29;;;;;;;30.53;18.17;;;9.70;99.90;;;;;;5046978;28;21029;-50
2023/02/17 06:30:56;;;;;;;45.53;23.90;;;9.70;99.90;;;;;;5054610;28;20202;-51
2023/02/17 06:33:23;;;;;;;41.67;22.57;;;9.70;99.90;;;;;;5050587;28;20311;-51
2023/02/17 06:35:51;;;;;;;36.90;20.47;;;9.70;99.90;;;;;;5050881;28;20568;-51
2023/02/17 06:38:18;;;;;;;39.53;20.70;;;9.80;99.90;;;;;;5037275;28;20222;-53
2023/02/17 06:40:45;;;;;;;37.50;20.53;;;9.70;99.90;;;;;;5044076;28;20218;-52
2023/02/17 06:43:12;;;;;;;30.87;18.63;;;9.70;99.90;;;;;;5053412;28;20650;-53
2023/02/17 06:45:59;;;;;;;33.87;20.70;;;9.70;99.90;;;;;;5051845;28;20221;-52
2023/02/17 06:48:26;;;;;;;34.43;20.07;;;9.70;99.90;;;;;;5048823;28;20211;-55
2023/02/17 06:50:53;;;;;;;38.20;20.97;;;9.70;99.90;;;;;;5054969;28;20198;-55
2023/02/17 06:53:20;;;;;;;41.27;21.93;;;9.70;99.90;;;;;;5034411;28;20624;-54
2023/02/17 06:55:47;;;;;;;33.70;19.57;;;9.70;99.90;;;;;;5047859;28;20203;-53
2023/02/17 06:58:14;;;;;;;31.90;20.10;;;9.70;99.90;;;;;;5046795;28;20235;-53
2023/02/17 07:00:40;;;;;;;37.00;21.97;;;9.70;99.90;;;;;;5053597;28;20250;-53
2023/02/17 07:03:08;;;;;;;40.77;23.00;;;9.80;99.90;;;;;;5052299;28;20193;-54
2023/02/17 07:05:36;;;;;;;36.10;21.60;;;9.70;99.90;;;;;;5052490;28;20187;-54
2023/02/17 07:08:02;;;;;;;42.43;22.63;;;9.70;99.90;;;;;;5048065;28;20704;-52
2023/02/17 07:10:30;;;;;;;42.93;22.73;;;9.70;99.90;;;;;;5044328;28;20186;-54
2023/02/17 07:12:57;;;;;;;39.83;23.57;;;9.70;99.90;;;;;;5046091;28;20199;-52
2023/02/17 07:15:24;;;;;;;48.90;27.27;;;9.70;99.90;;;;;;5038045;28;20298;-52
2023/02/17 07:17:51;;;;;;;47.40;27.07;;;9.70;99.90;;;;;;5057852;28;20238;-51
2023/02/17 07:20:20;;;;;;;40.40;24.30;;;9.80;99.90;;;;;;5047767;28;20203;-55
2023/02/17 07:22:47;;;;;;;42.77;24.97;;;9.80;99.90;;;;;;5042647;28;20290;-53
2023/02/17 07:25:13;;;;;;;34.47;19.70;;;9.70;99.90;;;;;;5030024;28;20207;-53
2023/02/17 07:27:40;;;;;;;34.43;21.40;;;9.80;99.90;;;;;;5050183;28;20290;-53
2023/02/17 07:30:10;;;;;;;37.53;22.17;;;9.80;99.90;;;;;;5041986;28;20202;-54
2023/02/17 07:32:36;;;;;;;44.80;24.83;;;9.80;99.90;;;;;;5042870;28;20202;-50
2023/02/17 07:35:03;;;;;;;36.77;22.30;;;9.80;99.90;;;;;;5047992;28;20207;-53
2023/02/17 07:37:33;;;;;;;37.30;21.73;;;9.80;99.90;;;;;;5043423;28;20192;-51
2023/02/17 07:39:59;;;;;;;40.63;23.53;;;9.80;99.90;;;;;;5040041;28;20219;-52
2023/02/17 07:42:27;;;;;;;38.17;22.90;;;9.80;99.90;;;;;;5047833;28;20187;-54
2023/02/17 07:44:54;;;;;;;39.93;23.23;;;9.80;99.90;;;;;;5047203;28;20599;-50
2023/02/17 07:47:20;;;;;;;36.23;22.70;;;9.80;99.90;;;;;;5038794;28;20198;-54
2023/02/17 07:49:50;;;;;;;38.57;22.07;;;9.80;99.90;;;;;;5039348;28;20234;-52
2023/02/17 07:52:41;;;;;;;38.27;23.17;;;9.90;99.90;;;;;;5050247;28;21960;-55
2023/02/17 07:55:09;;;;;;;40.67;23.60;;;9.80;99.90;;;;;;5027158;28;20211;-49
2023/02/17 07:57:37;;;;;;;35.33;21.13;;;9.90;99.90;;;;;;5036383;28;20973;-52
2023/02/17 08:00:06;;;;;;;36.13;22.07;;;9.90;99.90;;;;;;5055017;28;20215;-51
2023/02/17 08:02:39;;;;;;;36.80;22.50;;;9.90;99.90;;;;;;5034746;28;20356;-54
2023/02/17 08:05:06;;;;;;;39.07;22.60;;;9.90;99.90;;;;;;5044904;28;20250;-51
2023/02/17 08:07:33;;;;;;;37.40;22.40;;;9.90;99.90;;;;;;5048959;28;20276;-50
2023/02/17 08:13:19;;;;;;;31.33;19.77;;;9.90;99.90;;;;;;5055522;28;20213;-54
2023/02/17 08:15:47;;;;;;;26.57;17.00;;;9.90;99.90;;;;;;5041729;28;20198;-52
2023/02/17 08:18:13;;;;;;;34.97;20.33;;;9.90;99.90;;;;;;5047953;28;20218;-50
2023/02/17 08:20:40;;;;;;;28.73;15.80;;;9.90;99.90;;;;;;5033636;28;20233;-51
2023/02/17 08:23:07;;;;;;;28.07;17.73;;;9.90;99.90;;;;;;5051674;28;20195;-51
2023/02/17 08:25:53;;;;;;;31.67;18.27;;;9.90;99.90;;;;;;5028441;28;20356;-51
2023/02/17 08:28:20;;;;;;;25.13;14.20;;;9.90;99.90;;;;;;5050013;28;20257;-56
2023/02/17 08:30:47;;;;;;;25.27;15.17;;;9.90;99.90;;;;;;5047333;28;20301;-50
2023/02/17 08:33:16;;;;;;;26.40;15.37;;;9.90;99.90;;;;;;5042220;28;20198;-54
2023/02/17 08:35:44;;;;;;;25.30;14.67;;;9.90;99.90;;;;;;5052632;28;20268;-52
2023/02/17 08:38:11;;;;;;;24.73;15.33;;;9.90;99.90;;;;;;5049987;28;20218;-53
2023/02/17 08:40:38;;;;;;;24.80;15.60;;;9.90;99.90;;;;;;5051311;28;20216;-51
2023/02/17 08:43:08;;;;;;;26.97;16.03;;;9.90;99.90;;;;;;5035268;28;20202;-50
2023/02/17 08:45:36;;;;;;;21.90;13.70;;;9.90;99.90;;;;;;5044239;28;20191;-51
2023/02/17 08:48:04;;;;;;;26.67;15.17;;;9.90;99.90;;;;;;5048605;28;20640;-51
2023/02/17 08:50:31;;;;;;;20.87;13.30;;;9.90;99.90;;;;;;5043504;28;20194;-54
2023/02/17 08:52:59;;;;;;;23.23;14.63;;;9.90;99.90;;;;;;5051279;28;20215;-51
2023/02/17 08:55:47;;;;;;;26.60;16.13;;;9.90;99.90;;;;;;5047013;28;20312;-52
2023/02/17 08:58:15;;;;;;;20.87;12.37;;;9.90;99.90;;;;;;5041608;28;20240;-54
2023/02/17 09:00:42;;;;;;;18.80;12.73;;;9.90;99.90;;;;;;5046226;28;20215;-51
2023/02/17 09:03:09;;;;;;;23.70;14.50;;;9.90;99.90;;;;;;5056750;28;20223;-55
2023/02/17 09:05:36;;;;;;;23.40;13.73;;;9.90;99.90;;;;;;5038811;28;20229;-52
2023/02/17 09:08:05;;;;;;;22.33;13.87;;;9.90;99.90;;;;;;5047808;28;20223;-51
2023/02/17 09:10:32;;;;;;;20.73;12.70;;;9.90;99.90;;;;;;5056737;28;20195;-55
2023/02/17 09:12:59;;;;;;;20.10;12.70;;;9.90;99.90;;;;;;5054035;28;20202;-53
2023/02/17 09:15:27;;;;;;;17.00;11.90;;;9.90;99.90;;;;;;5036243;28;20211;-55
2023/02/17 09:17:54;;;;;;;22.83;13.83;;;9.90;99.90;;;;;;5056284;28;20222;-52
2023/02/17 09:20:21;;;;;;;21.47;14.30;;;9.90;99.90;;;;;;5051134;28;20688;-55
2023/02/17 09:23:07;;;;;;;26.53;15.30;;;9.90;99.90;;;;;;5042089;28;20931;-52
2023/02/17 09:25:34;;;;;;;22.33;13.93;;;9.90;99.90;;;;;;5052880;28;20199;-53
2023/02/17 09:28:01;;;;;;;21.57;12.37;;;9.90;99.90;;;;;;5054787;28;20288;-51
2023/02/17 09:30:30;;;;;;;21.13;12.40;;;9.90;99.90;;;;;;5035640;28;20883;-55
2023/02/17 09:32:56;;;;;;;21.53;12.37;;;9.90;99.90;;;;;;5051888;28;20204;-54
2023/02/17 09:35:23;;;;;;;17.50;12.30;;;9.90;99.90;;;;;;5045872;28;20192;-56
2023/02/17 09:37:50;;;;;;;20.67;12.83;;;9.90;99.90;;;;;;5047772;28;20222;-51
2023/02/17 09:40:20;;;;;;;22.27;12.10;;;9.90;99.90;;;;;;5043112;28;20717;-54
2023/02/17 09:42:47;;;;;;;20.50;12.07;;;9.90;99.90;;;;;;5041478;28;20218;-52
2023/02/17 09:45:20;;;;;;;18.33;12.30;;;9.90;99.90;;;;;;5038785;28;20230;-54
2023/02/17 09:47:51;;;;;;;18.07;12.20;;;9.90;99.90;;;;;;5051221;28;20202;-53
2023/02/17 09:50:21;;;;;;;20.27;12.30;;;10.00;99.90;;;;;;5051826;28;20187;-55
2023/02/17 09:52:56;;;;;;;21.90;13.90;;;10.00;99.90;;;;;;5050279;28;20290;-52
2023/02/17 09:55:27;;;;;;;20.70;12.70;;;10.00;99.90;;;;;;5049074;28;20203;-54
2023/02/17 09:57:59;;;;;;;22.43;13.87;;;10.00;99.90;;;;;;5054636;28;20229;-53
2023/02/17 10:00:30;;;;;;;20.03;12.50;;;10.00;99.90;;;;;;5036038;28;20214;-55
2023/02/17 10:03:05;;;;;;;20.87;11.67;;;10.00;99.90;;;;;;5050787;28;20207;-53
2023/02/17 10:05:38;;;;;;;21.03;13.17;;;10.00;99.90;;;;;;5053440;28;20199;-53
2023/02/17 10:08:08;;;;;;;22.43;13.70;;;10.00;99.90;;;;;;5045594;28;20227;-50
2023/02/17 10:10:43;;;;;;;24.83;16.23;;;10.00;99.90;;;;;;5046012;28;20191;-51
2023/02/17 10:13:10;;;;;;;25.80;15.93;;;10.10;99.90;;;;;;5054599;28;20199;-51
2023/02/17 10:15:41;;;;;;;29.30;16.73;;;10.10;99.90;;;;;;5036532;28;20219;-53
2023/02/17 10:18:12;;;;;;;24.67;14.17;;;10.10;99.90;;;;;;5050440;28;20226;-53
2023/02/17 10:20:44;;;;;;;23.40;13.97;;;10.10;99.90;;;;;;5045141;28;20219;-52
2023/02/17 10:23:16;;;;;;;17.80;12.03;;;10.10;99.90;;;;;;5040222;28;20210;-52
2023/02/17 10:26:15;;;;;;;18.07;12.83;;;10.10;99.90;;;;;;5048588;28;20206;-54
2023/02/17 10:28:51;;;;;;;21.17;12.63;;;10.20;99.90;;;;;;5047653;28;20231;-50
2023/02/17 10:31:28;;;;;;;18.83;12.03;;;10.20;99.90;;;;;;5041148;28;20546;-54
2023/02/17 10:34:02;;;;;;;20.67;12.50;;;10.20;99.90;;;;;;5049061;28;20290;-51
2023/02/17 10:36:41;;;;;;;18.73;10.57;;;10.20;99.90;;;;;;5049090;28;20321;-55
2023/02/17 10:39:14;;;;;;;18.20;11.27;;;10.20;99.90;;;;;;5041193;28;20230;-51
2023/02/17 10:41:42;;;;;;;18.27;10.90;;;10.20;99.90;;;;;;5045997;28;20218;-54
2023/02/17 10:44:13;;;;;;;19.00;10.80;;;10.20;99.90;;;;;;5045146;28;20542;-53
2023/02/17 10:46:41;;;;;;;15.67;9.93;;;10.20;99.90;;;;;;5043493;28;20198;-56
2023/02/17 10:49:20;;;;;;;16.67;10.43;;;10.30;99.90;;;;;;5035662;28;20240;-51
2023/02/17 10:51:47;;;;;;;24.07;11.63;;;10.30;99.90;;;;;;5046524;28;20187;-52
2023/02/17 10:54:24;;;;;;;18.27;10.07;;;10.30;99.90;;;;;;5039294;28;20282;-54
2023/02/17 10:56:54;;;;;;;19.70;11.37;;;10.30;99.90;;;;;;5056342;28;20192;-53
2023/02/17 10:59:23;;;;;;;19.30;10.93;;;10.30;99.90;;;;;;5040474;28;20215;-55
2023/02/17 11:01:51;;;;;;;17.03;10.67;;;10.30;99.90;;;;;;5049649;28;20327;-51
2023/02/17 11:04:19;;;;;;;15.87;9.90;;;10.40;99.90;;;;;;5037339;28;20253;-55
2023/02/17 11:06:50;;;;;;;16.77;9.90;;;10.40;99.90;;;;;;5050576;28;20198;-51
2023/02/17 11:09:20;;;;;;;15.67;10.00;;;10.40;99.90;;;;;;5040461;28;20700;-55
2023/02/17 11:11:57;;;;;;;15.67;8.43;;;10.40;99.90;;;;;;5045641;28;20270;-55
2023/02/17 11:14:27;;;;;;;17.43;9.83;;;10.40;99.90;;;;;;5044971;28;20561;-55
2023/02/17 11:17:23;;;;;;;16.20;8.87;;;10.40;99.90;;;;;;5053093;28;20623;-54
2023/02/17 11:20:03;;;;;;;15.33;9.67;;;10.50;99.90;;;;;;5032872;28;20313;-52
2023/02/17 11:22:34;;;;;;;15.90;9.30;;;10.50;99.90;;;;;;5044844;28;20215;-55
2023/02/17 11:25:04;;;;;;;16.30;9.83;;;10.50;99.90;;;;;;5050059;28;20230;-55
2023/02/17 11:27:31;;;;;;;15.73;8.93;;;10.50;99.90;;;;;;5034037;28;21179;-55
2023/02/17 11:30:14;;;;;;;14.20;9.33;;;10.50;99.90;;;;;;5050250;28;20206;-55
2023/02/17 11:32:41;;;;;;;18.70;10.73;;;10.50;99.90;;;;;;5047885;28;20186;-56
2023/02/17 11:35:24;;;;;;;18.27;10.37;;;10.50;99.90;;;;;;5036830;28;20571;-54
2023/02/17 11:37:51;;;;;;;16.67;9.77;;;10.50;99.90;;;;;;5048487;28;20211;-55
2023/02/17 11:40:25;;;;;;;18.83;11.37;;;10.60;99.90;;;;;;5044635;28;20207;-53
2023/02/17 11:42:57;;;;;;;17.87;10.73;;;10.60;99.90;;;;;;5052610;28;20270;-53
2023/02/17 11:45:27;;;;;;;19.37;11.23;;;10.60;99.90;;;;;;5046863;28;20207;-55
2023/02/17 11:48:06;;;;;;;18.23;11.13;;;10.60;99.90;;;;;;5045815;28;20612;-55
2023/02/17 11:50:44;;;;;;;21.40;12.53;;;10.60;99.90;;;;;;5032433;28;20210;-56
2023/02/17 11:53:22;;;;;;;20.67;12.60;;;10.60;99.90;;;;;;5056433;28;20244;-53
2023/02/17 11:56:00;;;;;;;22.17;13.17;;;10.60;99.90;;;;;;5042684;28;20210;-55
2023/02/17 11:58:38;;;;;;;17.93;12.37;;;10.60;99.90;;;;;;5035819;28;20231;-55
2023/02/17 12:01:19;;;;;;;19.53;12.50;;;10.60;99.90;;;;;;5043049;28;20699;-53
2023/02/17 12:04:21;;;;;;;18.43;11.43;;;10.70;99.90;;;;;;5049383;28;20771;-54
2023/02/17 12:07:02;;;;;;;22.53;12.77;;;10.60;99.90;;;;;;5032630;28;20217;-53
2023/02/17 12:09:35;;;;;;;20.87;12.53;;;10.70;99.90;;;;;;5047377;28;20226;-55
2023/02/17 12:12:13;;;;;;;21.93;11.97;;;10.70;99.90;;;;;;5041554;28;20198;-53
2023/02/17 12:15:03;;;;;;;20.23;11.23;;;10.70;99.90;;;;;;5048748;28;20882;-55
2023/02/17 12:17:41;;;;;;;17.73;11.53;;;10.80;99.90;;;;;;5042152;28;20764;-53
2023/02/17 12:20:27;;;;;;;19.20;10.70;;;10.80;99.90;;;;;;5045666;28;20212;-54
2023/02/17 12:23:05;;;;;;;22.43;11.50;;;10.80;99.90;;;;;;5038996;28;20368;-53
2023/02/17 12:25:58;;;;;;;17.80;11.40;;;10.80;99.90;;;;;;5052742;28;20340;-56
2023/02/17 12:28:41;;;;;;;21.93;12.07;;;10.80;99.90;;;;;;5051514;28;20237;-54
2023/02/17 12:31:16;;;;;;;17.60;10.03;;;10.80;99.90;;;;;;5046821;28;20233;-54
2023/02/17 12:33:55;;;;;;;17.40;10.67;;;10.80;99.90;;;;;;5044914;28;20745;-51
2023/02/17 12:36:27;;;;;;;15.53;9.50;;;10.80;99.90;;;;;;5044697;28;20606;-54
2023/02/17 12:39:01;;;;;;;16.43;11.17;;;10.80;99.90;;;;;;5053959;28;20223;-56
2023/02/17 12:41:34;;;;;;;19.67;9.70;;;10.80;99.90;;;;;;5054744;28;20222;-55
2023/02/17 12:44:05;;;;;;;16.63;10.20;;;10.80;99.90;;;;;;5051500;28;20556;-51
2023/02/17 12:46:36;;;;;;;12.33;8.57;;;10.80;99.90;;;;;;5054643;28;20195;-55
2023/02/17 12:49:11;;;;;;;13.53;8.50;;;10.80;99.90;;;;;;5056867;28;20218;-55
2023/02/17 12:51:42;;;;;;;15.40;8.13;;;10.80;99.90;;;;;;5032387;28;20206;-54
2023/02/17 12:54:18;;;;;;;10.47;8.00;;;10.80;99.90;;;;;;5038410;28;20204;-51
2023/02/17 12:57:07;;;;;;;10.50;7.77;;;10.80;99.90;;;;;;5047805;28;20215;-55